Grande Prairie Airport
CYQU : now visible

Airfield :











YOU CAN JOIN US ON...

 
LOGIN :

Register | Disclaimer

   EN    FR    IT 

 









Legend :    VFR   Marginal VFR   IFR   Intensive IFR   Very Intensive IFR
Visi :
Ceiling :
>= 8 km
>= 3000ft
5 to 8 km
1000 to 3000 ft
1500m to 5 km
500 to 1000 ft
800 to 1500m
200 to 500 ft
< 800m
< 200 ft
Symbols :   Thunderstorms  Fog  Heavy snow  Heavy precipitations  Wind > 20 kt






- Airport Elevation : 2195 ft
- IATA code : YQU


CYQU - Grande Prairie

CURRENT METAR :
  • 120600Z 17005KT 6SM -SN OVC015 M05/M06 A2989 RMK SC8 SLP178

EXPIRED METARs :
  • 120500Z 20005KT 10SM -SN OVC050 M06/M07 A2991 RMK SC8 SLP187
  • 120400Z 03004KT 340V040 25SM -FZRA BKN050 OVC070 M08/M09 A2991 RMK SC6AC2 INTMT -FZRA SLP190

TAF AMD TAF CYQU
Valid from the 12 at 02:00 until the 12 at 13:00 UTC


120217Z 1202/1213 VRB03KT P6SM BKN040 OVC080
TEMPO 1202/1206 3SM -FZRA -SN BKN020 OVC040
FM120600 VRB03KT 4SM -SN OVC025
TEMPO 1206/1210 1SM -SN VV015
PROB30 1206/1210 4SM -FZRA BR
FM121000 28005KT P6SM BKN015 OVC030
TEMPO 1210/1213 2SM -SN OVC008 RMK NXT FCST BY 120700Z



MET'MAP, your aeronautical weather chart ! - Copyright ORBIFLY December 2007 - Disclaimer

ORBIFLY MET'MAP TEAM :

Programming & Development : Alexandra Zaïnal
Concept & Development : Baudouin d'Aumeries
Co-Development & Prog : Marc-Olivier Méhu
Technical & hardware support : Manuel Goepfert

Contact : metmap@orbifly.com




SOURCES & CREDITS :

   NOAA       Earth
Advisory